createdAt,value
2023-04-11T00:01:51.588Z,98212.59
2023-04-11T00:04:25.484Z,98221.81
2023-04-11T00:06:58.529Z,98203.03
2023-04-11T00:09:30.688Z,98192.53
2023-04-11T00:12:03.172Z,98192.66
2023-04-11T00:14:35.076Z,98191.38
2023-04-11T00:17:09.728Z,98174.88
2023-04-11T00:19:43.388Z,98181.59
2023-04-11T00:22:18.116Z,98156.50
2023-04-11T00:24:50.612Z,98149.25
2023-04-11T00:27:23.041Z,98136.69
2023-04-11T00:29:56.981Z,98137.44
2023-04-11T00:32:29.350Z,98140.75
2023-04-11T00:35:01.877Z,98148.41
2023-04-11T00:37:36.593Z,98134.72
2023-04-11T00:40:11.440Z,98139.53
2023-04-11T00:42:43.853Z,98147.53
2023-04-11T00:45:15.793Z,98172.31
2023-04-11T00:47:48.747Z,98164.91
2023-04-11T00:50:22.271Z,98161.72
2023-04-11T00:52:57.113Z,98181.69
2023-04-11T00:55:29.781Z,98172.50
2023-04-11T00:58:02.658Z,98174.47
2023-04-11T01:00:35.489Z,98176.53
2023-04-11T01:03:08.660Z,98189.81
2023-04-11T01:05:41.203Z,98172.50
2023-04-11T01:08:14.611Z,98201.88
2023-04-11T01:10:46.838Z,98189.28
2023-04-11T01:13:19.465Z,98195.38
2023-04-11T01:15:51.507Z,98190.75
2023-04-11T01:18:25.993Z,98180.25
2023-04-11T01:21:00.127Z,98173.69
2023-04-11T01:23:34.254Z,98178.81
2023-04-11T01:26:06.823Z,98175.44
2023-04-11T01:28:39.543Z,98186.56
2023-04-11T01:31:12.078Z,98172.97
2023-04-11T01:33:44.900Z,98176.44
2023-04-11T01:36:16.946Z,98186.06
2023-04-11T01:38:50.023Z,98197.16
2023-04-11T01:41:23.755Z,98196.81
2023-04-11T01:43:57.131Z,98203.75
2023-04-11T01:46:30.212Z,98204.75
2023-04-11T01:49:03.999Z,98217.38
2023-04-11T01:51:37.041Z,98218.59
2023-04-11T01:54:10.403Z,98193.59
2023-04-11T01:56:43.304Z,98211.44
2023-04-11T01:59:16.652Z,98210.09
2023-04-11T02:01:50.035Z,98216.09
2023-04-11T02:04:22.867Z,98214.78
2023-04-11T02:06:54.844Z,98214.22
2023-04-11T02:09:27.613Z,98214.28
2023-04-11T02:11:59.932Z,98226.22
2023-04-11T02:14:46.884Z,98208.38
2023-04-11T02:17:22.218Z,98218.97
2023-04-11T02:19:55.075Z,98215.63
2023-04-11T02:22:27.739Z,98199.16
2023-04-11T02:24:59.698Z,98203.22
2023-04-11T02:27:32.061Z,98211.81
2023-04-11T02:30:08.383Z,98198.56
2023-04-11T02:32:41.880Z,98193.94
2023-04-11T02:35:20.085Z,98205.78
2023-04-11T02:37:51.937Z,98209.72
2023-04-11T02:40:24.211Z,98195.19
2023-04-11T02:45:50.917Z,98199.75
2023-04-11T02:48:24.773Z,98194.44
2023-04-11T02:50:57.570Z,98195.03
2023-04-11T02:53:30.105Z,98189.09
2023-04-11T02:56:02.811Z,98187.78
2023-04-11T02:58:38.882Z,98193.06
2023-04-11T03:01:12.425Z,98170.59
2023-04-11T03:03:45.669Z,98179.16
2023-04-11T03:06:19.777Z,98181.06
2023-04-11T03:08:53.995Z,98186.97
2023-04-11T03:14:19.860Z,98197.53
2023-04-11T03:16:51.746Z,98192.25
2023-04-11T03:19:24.826Z,98181.03
2023-04-11T03:21:57.644Z,98188.31
2023-04-11T03:24:30.816Z,98195.56
2023-04-11T03:27:03.147Z,98200.19
2023-04-11T03:29:36.360Z,98204.16
2023-04-11T03:32:22.774Z,98196.81
2023-04-11T03:34:54.733Z,98188.16
2023-04-11T03:37:31.786Z,98183.53
2023-04-11T03:40:08.296Z,98166.34
2023-04-11T03:42:44.395Z,98170.91
2023-04-11T03:45:21.251Z,98189.44
2023-04-11T03:47:55.291Z,98190.72
2023-04-11T03:50:32.473Z,98197.34
2023-04-11T03:53:26.922Z,98211.19
2023-04-11T03:56:04.206Z,98212.53
2023-04-11T03:58:41.968Z,98213.16
2023-04-11T04:01:15.209Z,98198.63
2023-04-11T04:03:47.312Z,98199.97
2023-04-11T04:06:23.146Z,98204.56
2023-04-11T04:08:55.419Z,98197.97
2023-04-11T04:11:28.168Z,98217.13
2023-04-11T04:14:02.877Z,98209.19
2023-04-11T04:16:35.196Z,98213.16
2023-04-11T04:19:13.712Z,98210.50
2023-04-11T04:21:50.431Z,98222.47
2023-04-11T04:24:28.367Z,98216.63
2023-04-11T04:27:14.791Z,98202.75
2023-04-11T04:30:01.588Z,98209.47
2023-04-11T04:33:00.306Z,98223.38
2023-04-11T04:35:35.930Z,98227.34
2023-04-11T04:38:09.536Z,98220.81
2023-04-11T04:40:51.348Z,98228.75
2023-04-11T04:43:24.812Z,98237.34
2023-04-11T04:46:04.793Z,98286.91
2023-04-11T04:48:45.046Z,98298.22
2023-04-11T04:51:18.165Z,98305.06
2023-04-11T04:53:50.790Z,98315.06
2023-04-11T04:56:24.130Z,98308.50
2023-04-11T04:58:58.134Z,98326.88
2023-04-11T05:01:33.410Z,98344.63
2023-04-11T05:04:07.557Z,98338.59
2023-04-11T05:06:51.000Z,98382.69
2023-04-11T05:09:24.253Z,98390.53
2023-04-11T05:11:59.629Z,98400.38
2023-04-11T05:14:31.976Z,98400.31
2023-04-11T05:17:05.550Z,98405.50
2023-04-11T05:19:37.646Z,98412.13
2023-04-11T05:22:11.185Z,98418.69
2023-04-11T05:24:48.428Z,98413.44
2023-04-11T05:27:21.722Z,98423.19
2023-04-11T05:29:54.954Z,98434.47
2023-04-11T05:32:28.566Z,98423.84
2023-04-11T05:35:02.112Z,98430.44
2023-04-11T05:37:44.614Z,98436.97
2023-04-11T05:40:18.050Z,98445.53
2023-04-11T05:42:51.254Z,98430.13
2023-04-11T05:45:24.928Z,98431.25
2023-04-11T05:47:56.862Z,98425.25
2023-04-11T05:50:30.029Z,98439.66
2023-04-11T05:53:04.725Z,98439.06
2023-04-11T05:55:37.741Z,98434.56
2023-04-11T05:58:11.614Z,98435.81
2023-04-11T06:00:45.941Z,98432.00
2023-04-11T06:03:19.468Z,98436.50
2023-04-11T06:05:51.835Z,98434.63
2023-04-11T06:08:24.555Z,98439.78
2023-04-11T06:10:56.867Z,98447.78
2023-04-11T06:13:29.815Z,98447.84
2023-04-11T06:16:04.005Z,98433.88
2023-04-11T06:18:36.301Z,98437.13
2023-04-11T06:21:09.574Z,98435.84
2023-04-11T06:23:41.486Z,98432.56
2023-04-11T06:26:13.991Z,98439.78
2023-04-11T06:28:45.868Z,98448.38
2023-04-11T06:31:19.260Z,98463.38
2023-04-11T06:33:51.677Z,98468.06
2023-04-11T06:36:23.714Z,98457.41
2023-04-11T06:38:56.754Z,98468.00
2023-04-11T06:41:28.626Z,98452.28
2023-04-11T06:44:01.399Z,98462.94
2023-04-11T06:46:37.006Z,98475.97
2023-04-11T06:49:10.285Z,98485.88
2023-04-11T06:51:52.925Z,98494.41
2023-04-11T06:54:25.105Z,98489.91
2023-04-11T06:56:58.238Z,98491.94
2023-04-11T06:59:32.346Z,98492.63
2023-04-11T07:05:16.781Z,98496.56
2023-04-11T07:07:49.331Z,98502.44
2023-04-11T07:10:21.348Z,98514.31
2023-04-11T07:12:54.213Z,98532.09
2023-04-11T07:15:26.063Z,98522.22
2023-04-11T07:17:58.552Z,98502.56
2023-04-11T07:20:32.947Z,98493.28
2023-04-11T07:23:05.578Z,98481.50
2023-04-11T07:25:39.288Z,98482.66
2023-04-11T07:28:12.339Z,98491.28
2023-04-11T07:30:44.228Z,98498.03
2023-04-11T07:33:16.677Z,98486.06
2023-04-11T07:35:48.578Z,98479.63
2023-04-11T07:38:27.681Z,98467.84
2023-04-11T07:41:01.824Z,98471.78
2023-04-11T07:43:34.750Z,98476.44
2023-04-11T07:46:07.137Z,98478.66
2023-04-11T07:48:39.602Z,98487.09
2023-04-11T07:51:12.178Z,98496.53
2023-04-11T07:53:45.156Z,98495.16
2023-04-11T07:56:17.443Z,98497.41
2023-04-11T07:58:50.377Z,98497.38
2023-04-11T08:01:24.913Z,98498.28
2023-04-11T08:03:58.083Z,98492.16
2023-04-11T08:06:31.435Z,98500.06
2023-04-11T08:09:04.380Z,98502.66
2023-04-11T08:11:36.409Z,98512.50
2023-04-11T08:14:09.438Z,98519.13
2023-04-11T08:16:41.456Z,98513.94
2023-04-11T08:19:13.948Z,98516.75
2023-04-11T08:21:45.945Z,98510.25
2023-04-11T08:24:18.681Z,98514.94
2023-04-11T08:26:50.578Z,98520.81
2023-04-11T08:29:23.094Z,98508.28
2023-04-11T08:31:55.979Z,98507.06
2023-04-11T08:34:28.843Z,98513.69
2023-04-11T08:37:00.786Z,98522.94
2023-04-11T08:39:33.677Z,98518.94
2023-04-11T08:42:05.787Z,98514.22
2023-04-11T08:44:38.280Z,98522.53
2023-04-11T08:47:10.191Z,98516.06
2023-04-11T08:49:42.729Z,98520.72
2023-04-11T08:52:15.841Z,98523.75
2023-04-11T08:54:49.912Z,98522.78
2023-04-11T08:57:27.944Z,98516.22
2023-04-11T09:00:15.074Z,98518.56
2023-04-11T09:03:02.823Z,98522.50
2023-04-11T09:05:41.297Z,98532.88
2023-04-11T09:08:16.492Z,98525.53
2023-04-11T09:10:48.989Z,98517.78
2023-04-11T09:13:28.203Z,98508.94
2023-04-11T09:16:06.896Z,98524.66
2023-04-11T09:18:42.158Z,98512.91
2023-04-11T09:21:17.157Z,98510.47
2023-04-11T09:23:49.060Z,98508.75
2023-04-11T09:26:30.204Z,98498.69
2023-04-11T09:29:02.627Z,98497.50
2023-04-11T09:31:42.517Z,98509.13
2023-04-11T09:34:23.479Z,98518.41
2023-04-11T09:36:56.801Z,98509.91
2023-04-11T09:39:29.880Z,98507.22
2023-04-11T09:42:05.383Z,98508.38
2023-04-11T09:44:38.856Z,98512.66
2023-04-11T09:47:11.303Z,98495.75
2023-04-11T09:49:43.901Z,98496.88
2023-04-11T09:52:18.688Z,98504.81
2023-04-11T09:54:51.542Z,98498.34
2023-04-11T09:57:24.490Z,98510.53
2023-04-11T09:59:56.892Z,98516.31
2023-04-11T10:02:29.691Z,98507.59
2023-04-11T10:05:04.255Z,98506.59
2023-04-11T10:07:57.412Z,98511.19
2023-04-11T10:10:29.993Z,98500.31
2023-04-11T10:13:02.665Z,98513.13
2023-04-11T10:15:34.559Z,98516.09
2023-04-11T10:18:11.993Z,98505.09
2023-04-11T10:20:50.192Z,98504.19
2023-04-11T10:23:23.202Z,98498.97
2023-04-11T10:26:01.247Z,98502.28
2023-04-11T10:28:39.428Z,98502.97
2023-04-11T10:31:17.326Z,98499.75
2023-04-11T10:34:17.043Z,98498.34
2023-04-11T10:37:06.217Z,98491.91
2023-04-11T10:40:09.867Z,98492.91
2023-04-11T10:42:44.353Z,98494.97
2023-04-11T10:45:29.839Z,98485.59
2023-04-11T10:48:13.457Z,98490.16
2023-04-11T10:50:46.655Z,98492.91
2023-04-11T10:53:36.965Z,98482.53
2023-04-11T10:56:09.482Z,98488.59
2023-04-11T10:58:41.563Z,98485.22
2023-04-11T11:01:26.053Z,98490.81
2023-04-11T11:04:09.908Z,98478.53
2023-04-11T11:06:47.218Z,98477.53
2023-04-11T11:09:23.608Z,98485.22
2023-04-11T11:12:13.846Z,98481.19
2023-04-11T11:14:47.424Z,98485.44
2023-04-11T11:17:20.116Z,98505.94
2023-04-11T11:19:52.084Z,98500.13
2023-04-11T11:22:28.379Z,98503.13
2023-04-11T11:25:09.036Z,98506.25
2023-04-11T11:27:42.038Z,98501.56
2023-04-11T11:30:15.714Z,98496.41
2023-04-11T11:32:48.284Z,98508.63
2023-04-11T11:35:20.515Z,98501.72
2023-04-11T11:37:54.440Z,98491.03
2023-04-11T11:40:26.732Z,98494.91
2023-04-11T11:42:59.237Z,98490.69
2023-04-11T11:45:32.860Z,98486.31
2023-04-11T11:48:05.619Z,98491.03
2023-04-11T11:50:37.560Z,98490.00
2023-04-11T11:53:16.030Z,98498.84
2023-04-11T11:55:48.616Z,98499.28
2023-04-11T11:58:21.713Z,98501.44
2023-04-11T12:00:54.160Z,98506.16
2023-04-11T12:03:30.076Z,98500.00
2023-04-11T12:06:02.169Z,98486.41
2023-04-11T12:08:34.838Z,98494.72
2023-04-11T12:11:13.835Z,98490.91
2023-04-11T12:13:51.606Z,98488.53
2023-04-11T12:16:23.817Z,98469.63
2023-04-11T12:19:00.714Z,98472.75
2023-04-11T12:21:32.679Z,98470.59
2023-04-11T12:24:06.081Z,98463.94
2023-04-11T12:26:42.714Z,98480.56
2023-04-11T12:29:21.582Z,98469.09
2023-04-11T12:31:53.766Z,98466.81
2023-04-11T12:34:26.442Z,98477.28
2023-04-11T12:36:58.706Z,98482.19
2023-04-11T12:39:32.000Z,98472.50
2023-04-11T12:42:04.029Z,98480.38
2023-04-11T12:44:36.659Z,98486.25
2023-04-11T12:47:08.557Z,98486.72
2023-04-11T12:49:41.049Z,98483.13
2023-04-11T12:52:12.953Z,98478.28
2023-04-11T12:54:46.068Z,98469.28
2023-04-11T12:57:18.015Z,98469.31
2023-04-11T12:59:51.570Z,98468.63
2023-04-11T13:02:23.834Z,98470.53
2023-04-11T13:04:58.133Z,98470.16
2023-04-11T13:07:30.531Z,98471.03
2023-04-11T13:10:08.659Z,98471.59
2023-04-11T13:12:41.795Z,98460.72
2023-04-11T13:15:16.994Z,98476.66
2023-04-11T13:17:50.316Z,98460.59
2023-04-11T13:20:23.000Z,98465.63
2023-04-11T13:22:55.304Z,98466.84
2023-04-11T13:25:28.232Z,98456.31
2023-04-11T13:28:00.155Z,98455.94
2023-04-11T13:30:33.036Z,98454.88
2023-04-11T13:33:04.940Z,98438.97
2023-04-11T13:35:37.890Z,98438.19
2023-04-11T13:38:11.462Z,98443.31
2023-04-11T13:40:43.967Z,98450.78
2023-04-11T13:43:15.908Z,98450.06
2023-04-11T13:45:48.519Z,98463.00
2023-04-11T13:48:20.493Z,98451.59
2023-04-11T13:50:53.406Z,98445.75
2023-04-11T13:53:25.494Z,98436.31
2023-04-11T13:55:58.049Z,98443.28
2023-04-11T13:58:31.078Z,98438.34
2023-04-11T14:01:03.667Z,98419.34
2023-04-11T14:03:36.165Z,98429.19
2023-04-11T14:06:09.557Z,98429.16
2023-04-11T14:08:41.700Z,98424.88
2023-04-11T14:11:14.733Z,98448.25
2023-04-11T14:13:46.707Z,98430.75
2023-04-11T14:16:19.762Z,98425.00
2023-04-11T14:18:52.120Z,98423.63
2023-04-11T14:21:24.845Z,98427.38
2023-04-11T14:23:57.271Z,98418.66
2023-04-11T14:26:29.911Z,98422.16
2023-04-11T14:29:04.317Z,98418.25
2023-04-11T14:31:37.052Z,98418.31
2023-04-11T14:34:09.162Z,98416.28
2023-04-11T14:36:41.771Z,98412.31
2023-04-11T14:39:13.645Z,98411.31
2023-04-11T14:41:46.260Z,98408.25
2023-04-11T14:44:18.211Z,98405.84
2023-04-11T14:46:50.798Z,98405.13
2023-04-11T14:49:23.141Z,98400.66
2023-04-11T14:51:55.737Z,98395.28
2023-04-11T14:54:28.016Z,98390.50
2023-04-11T14:57:00.641Z,98387.59
2023-04-11T14:59:33.130Z,98380.88
2023-04-11T15:02:06.445Z,98381.44
2023-04-11T15:04:38.598Z,98379.91
2023-04-11T15:07:13.402Z,98360.69
2023-04-11T15:09:46.178Z,98360.00
2023-04-11T15:15:12.312Z,98365.63
2023-04-11T15:17:50.807Z,98364.63
2023-04-11T15:20:24.312Z,98372.97
2023-04-11T15:22:57.049Z,98364.16
2023-04-11T15:25:29.368Z,98360.00
2023-04-11T15:28:01.899Z,98359.03
2023-04-11T15:30:35.180Z,98363.03
2023-04-11T15:33:07.545Z,98358.72
2023-04-11T15:35:44.724Z,98343.19
2023-04-11T15:38:17.980Z,98342.00
2023-04-11T15:41:11.976Z,98341.09
2023-04-11T15:43:45.041Z,98342.84
2023-04-11T15:46:18.592Z,98340.69
2023-04-11T15:48:51.433Z,98342.88
2023-04-11T15:51:23.611Z,98334.59
2023-04-11T15:53:57.302Z,98326.50
2023-04-11T15:56:29.479Z,98328.22
2023-04-11T15:59:02.212Z,98317.22
2023-04-11T16:01:36.295Z,98324.50
2023-04-11T16:04:09.793Z,98328.44
2023-04-11T16:06:44.142Z,98328.66
2023-04-11T16:09:16.643Z,98316.63
2023-04-11T16:11:48.953Z,98318.50
2023-04-11T16:14:32.518Z,98315.13
2023-04-11T16:17:04.851Z,98318.31
2023-04-11T16:19:38.801Z,98322.50
2023-04-11T16:22:11.181Z,98321.56
2023-04-11T16:24:44.246Z,98317.84
2023-04-11T16:27:16.489Z,98315.81
2023-04-11T16:29:49.201Z,98319.53
2023-04-11T16:32:21.834Z,98302.75
2023-04-11T16:34:55.361Z,98306.53
2023-04-11T16:37:27.587Z,98301.38
2023-04-11T16:40:00.730Z,98304.16
2023-04-11T16:42:33.157Z,98293.53
2023-04-11T16:45:06.355Z,98294.81
2023-04-11T16:47:39.173Z,98291.50
2023-04-11T16:50:11.872Z,98295.47
2023-04-11T16:52:44.434Z,98295.56
2023-04-11T16:55:16.780Z,98295.63
2023-04-11T16:57:50.166Z,98283.06
2023-04-11T17:00:22.403Z,98287.19
2023-04-11T17:02:55.307Z,98282.47
2023-04-11T17:05:28.263Z,98283.78
2023-04-11T17:08:01.063Z,98291.78
2023-04-11T17:10:33.574Z,98284.47
2023-04-11T17:13:05.892Z,98276.63
2023-04-11T17:15:37.859Z,98278.00
2023-04-11T17:18:10.997Z,98283.31
2023-04-11T17:20:43.723Z,98280.00
2023-04-11T17:23:16.961Z,98272.75
2023-04-11T17:28:46.869Z,98279.53
2023-04-11T17:31:20.080Z,98271.72
2023-04-11T17:33:52.432Z,98269.72
2023-04-11T17:36:27.628Z,98271.66
2023-04-11T17:39:00.019Z,98265.06
2023-04-11T17:41:32.959Z,98277.72
2023-04-11T17:44:04.891Z,98260.56
2023-04-11T17:46:37.640Z,98273.16
2023-04-11T17:49:10.007Z,98267.22
2023-04-11T17:51:49.056Z,98259.38
2023-04-11T17:54:24.469Z,98265.31
2023-04-11T17:56:57.947Z,98256.78
2023-04-11T17:59:30.262Z,98262.72
2023-04-11T18:02:04.546Z,98260.75
2023-04-11T18:04:36.605Z,98260.09
2023-04-11T18:07:10.405Z,98265.38
2023-04-11T18:09:43.147Z,98260.81
2023-04-11T18:12:16.592Z,98254.25
2023-04-11T18:14:48.550Z,98255.00
2023-04-11T18:17:22.234Z,98255.69
2023-04-11T18:19:54.239Z,98262.31
2023-04-11T18:22:27.109Z,98251.75
2023-04-11T18:25:01.970Z,98253.09
2023-04-11T18:27:36.831Z,98253.09
2023-04-11T18:30:14.557Z,98254.38
2023-04-11T18:32:49.530Z,98253.03
2023-04-11T18:35:23.931Z,98258.38
2023-04-11T18:38:18.040Z,98254.41
2023-04-11T18:40:53.908Z,98255.03
2023-04-11T18:43:28.368Z,98253.09
2023-04-11T18:46:01.904Z,98257.75
2023-04-11T18:48:35.022Z,98255.75
2023-04-11T18:51:07.768Z,98254.44
2023-04-11T18:53:43.904Z,98264.34
2023-04-11T18:56:16.215Z,98264.34
2023-04-11T18:58:51.978Z,98258.41
2023-04-11T19:01:27.031Z,98261.09
2023-04-11T19:04:00.100Z,98253.84
2023-04-11T19:06:35.928Z,98261.78
2023-04-11T19:09:07.793Z,98250.56
2023-04-11T19:11:41.459Z,98247.88
2023-04-11T19:14:14.167Z,98248.50
2023-04-11T19:16:46.804Z,98239.91
2023-04-11T19:19:20.180Z,98238.59
2023-04-11T19:21:52.040Z,98239.91
2023-04-11T19:24:24.755Z,98242.56
2023-04-11T19:26:57.473Z,98232.63
2023-04-11T19:29:29.822Z,98225.38
2023-04-11T19:32:02.344Z,98216.13
2023-04-11T19:34:35.716Z,98226.00
2023-04-11T19:37:09.026Z,98214.78
2023-04-11T19:39:41.436Z,98220.03
2023-04-11T19:42:14.226Z,98213.47
2023-04-11T19:44:47.142Z,98204.81
2023-04-11T19:47:19.879Z,98204.84
2023-04-11T19:49:52.098Z,98203.53
2023-04-11T19:52:24.907Z,98202.22
2023-04-11T19:54:57.814Z,98200.91
2023-04-11T19:57:29.896Z,98187.78
2023-04-11T20:00:09.878Z,98192.66
2023-04-11T20:02:45.203Z,98184.81
2023-04-11T20:05:20.112Z,98192.94
2023-04-11T20:07:53.631Z,98175.72
2023-04-11T20:10:26.374Z,98180.38
2023-04-11T20:12:58.272Z,98185.00
2023-04-11T20:15:31.881Z,98172.44
2023-04-11T20:18:04.453Z,98171.84
2023-04-11T20:20:36.755Z,98169.78
2023-04-11T20:23:09.842Z,98163.19
2023-04-11T20:25:42.727Z,98167.81
2023-04-11T20:28:15.403Z,98159.22
2023-04-11T20:30:47.433Z,98154.63
2023-04-11T20:33:20.176Z,98144.13
2023-04-11T20:35:54.772Z,98149.41
2023-04-11T20:38:28.021Z,98152.06
2023-04-11T20:41:03.620Z,98158.03
2023-04-11T20:43:42.252Z,98139.53
2023-04-11T20:46:14.836Z,98147.44
2023-04-11T20:48:48.094Z,98145.44
2023-04-11T20:51:20.017Z,98138.13
2023-04-11T20:53:52.827Z,98145.38
2023-04-11T20:56:25.408Z,98140.03
2023-04-11T20:58:58.164Z,98134.09
2023-04-11T21:01:33.585Z,98130.16
2023-04-11T21:04:07.271Z,98125.56
2023-04-11T21:06:39.660Z,98135.50
2023-04-11T21:09:12.449Z,98139.50
2023-04-11T21:11:44.744Z,98138.19
2023-04-11T21:14:18.143Z,98139.53
2023-04-11T21:16:50.184Z,98141.56
2023-04-11T21:22:15.422Z,98145.56
2023-04-11T21:24:48.163Z,98149.53
2023-04-11T21:27:20.065Z,98142.97
2023-04-11T21:29:53.186Z,98150.91
2023-04-11T21:32:25.204Z,98154.88
2023-04-11T21:34:57.941Z,98151.59
2023-04-11T21:37:29.830Z,98157.53
2023-04-11T21:40:03.260Z,98148.34
2023-04-11T21:42:35.196Z,98150.97
2023-04-11T21:45:09.062Z,98156.25
2023-04-11T21:47:41.025Z,98147.03
2023-04-11T21:50:16.776Z,98152.97
2023-04-11T21:52:49.122Z,98148.34
2023-04-11T21:55:21.848Z,98142.44
2023-04-11T21:57:55.913Z,98139.78
2023-04-11T22:00:27.789Z,98139.78
2023-04-11T22:03:21.945Z,98135.19
2023-04-11T22:05:54.697Z,98128.56
2023-04-11T22:08:30.626Z,98131.22
2023-04-11T22:11:02.502Z,98122.63
2023-04-11T22:13:35.312Z,98119.34
2023-04-11T22:16:07.845Z,98114.06
2023-04-11T22:18:47.360Z,98110.78
2023-04-11T22:21:20.190Z,98103.53
2023-04-11T22:23:57.664Z,98102.84
2023-04-11T22:26:33.957Z,98103.50
2023-04-11T22:29:07.675Z,98086.41
2023-04-11T22:31:39.661Z,98098.91
2023-04-11T22:34:12.544Z,98085.75
2023-04-11T22:36:44.813Z,98085.13
2023-04-11T22:39:39.731Z,98070.63
2023-04-11T22:42:11.673Z,98064.69
2023-04-11T22:44:44.410Z,98060.09
2023-04-11T22:47:17.145Z,98063.38
2023-04-11T22:49:50.275Z,98070.66
2023-04-11T22:52:26.464Z,98059.44
2023-04-11T22:54:58.442Z,98054.81
2023-04-11T22:57:31.312Z,98052.16
2023-04-11T23:00:07.374Z,98052.84
2023-04-11T23:02:40.380Z,98031.78
2023-04-11T23:05:12.322Z,98008.75
2023-04-11T23:07:45.166Z,98006.13
2023-04-11T23:10:17.748Z,98000.84
2023-04-11T23:12:50.002Z,97992.97
2023-04-11T23:15:22.523Z,97985.72
2023-04-11T23:17:55.269Z,97987.69
2023-04-11T23:20:28.301Z,97989.00
2023-04-11T23:23:00.595Z,97976.50
2023-04-11T23:25:32.466Z,97977.13
2023-04-11T23:28:05.160Z,97975.16
2023-04-11T23:30:37.989Z,97969.94
2023-04-11T23:33:10.351Z,97958.72
2023-04-11T23:35:42.859Z,97965.31
2023-04-11T23:38:19.648Z,97960.69
2023-04-11T23:40:52.424Z,97960.03
2023-04-11T23:43:25.129Z,97965.97
2023-04-11T23:45:57.247Z,97950.84
2023-04-11T23:48:29.977Z,97949.50
2023-04-11T23:51:02.112Z,97960.72
2023-04-11T23:53:34.876Z,97959.34
2023-04-11T23:56:07.768Z,97950.13
2023-04-11T23:58:40.841Z,97955.41
